createdAt,value
2022-12-18T00:09:05.344Z,-6.00
2022-12-18T00:19:28.967Z,-6.00
2022-12-18T00:29:50.890Z,-6.10
2022-12-18T00:40:14.520Z,-6.10
2022-12-18T00:50:36.463Z,-6.10
2022-12-18T01:00:59.583Z,-6.00
2022-12-18T01:11:23.222Z,-5.90
2022-12-18T01:21:45.910Z,-6.10
2022-12-18T01:32:08.508Z,-6.20
2022-12-18T01:42:32.083Z,-6.00
2022-12-18T01:52:57.493Z,-6.20
2022-12-18T02:03:20.623Z,-6.00
2022-12-18T02:13:48.661Z,-6.10
2022-12-18T02:24:25.985Z,-6.30
2022-12-18T02:34:50.225Z,-6.50
2022-12-18T02:45:12.499Z,-6.40
2022-12-18T02:55:46.782Z,-6.40
2022-12-18T03:06:16.099Z,-6.30
2022-12-18T03:16:43.144Z,-6.50
2022-12-18T03:27:09.098Z,-6.40
2022-12-18T03:37:32.478Z,-6.50
2022-12-18T03:48:03.219Z,-6.50
2022-12-18T03:58:33.683Z,-6.70
2022-12-18T04:09:11.132Z,-6.40
2022-12-18T04:19:38.661Z,-6.90
2022-12-18T04:30:00.449Z,-6.60
2022-12-18T04:40:23.790Z,-6.50
2022-12-18T04:50:45.527Z,-6.30
2022-12-18T05:01:09.476Z,-6.20
2022-12-18T05:11:30.794Z,-6.20
2022-12-18T05:21:53.979Z,-6.30
2022-12-18T05:32:15.436Z,-6.30
2022-12-18T05:42:38.673Z,-6.40
2022-12-18T05:53:00.127Z,-6.50
2022-12-18T06:03:23.119Z,-6.40
2022-12-18T06:13:44.605Z,-6.30
2022-12-18T06:24:08.259Z,-6.40
2022-12-18T06:34:29.669Z,-6.50
2022-12-18T06:44:52.547Z,-6.30
2022-12-18T06:55:13.870Z,-6.10
2022-12-18T07:05:41.993Z,-6.40
2022-12-18T07:16:15.982Z,-6.10
2022-12-18T07:26:41.293Z,-6.10
2022-12-18T07:37:02.862Z,-6.20
2022-12-18T07:47:25.839Z,-6.20
2022-12-18T07:57:51.453Z,-6.10
2022-12-18T08:08:16.455Z,-6.20
2022-12-18T08:18:39.387Z,-6.00
2022-12-18T08:29:02.241Z,-5.80
2022-12-18T08:39:23.876Z,-5.70
2022-12-18T08:49:47.117Z,-5.60
2022-12-18T09:00:10.050Z,-5.30
2022-12-18T09:10:33.046Z,-5.20
2022-12-18T09:20:55.974Z,-5.00
2022-12-18T09:31:21.576Z,-4.90
2022-12-18T09:41:48.138Z,-4.70
2022-12-18T09:52:17.843Z,-4.70
2022-12-18T10:02:39.419Z,-4.50
2022-12-18T10:13:10.483Z,-4.20
2022-12-18T10:23:43.670Z,-4.00
2022-12-18T10:34:13.371Z,-4.40
2022-12-18T10:44:35.140Z,-4.30
2022-12-18T10:55:02.507Z,-4.10
2022-12-18T11:05:32.464Z,-4.20
2022-12-18T11:15:55.555Z,-4.20
2022-12-18T11:26:17.342Z,-4.30
2022-12-18T11:36:44.009Z,-4.10
2022-12-18T11:47:12.007Z,-4.10
2022-12-18T11:57:43.021Z,-3.90
2022-12-18T12:08:32.733Z,-3.80
2022-12-18T12:19:10.007Z,-3.70
2022-12-18T12:29:43.722Z,-3.70
2022-12-18T12:40:40.941Z,-3.40
2022-12-18T12:50:50.504Z,-3.50
2022-12-18T13:01:23.568Z,-3.40
2022-12-18T13:12:05.058Z,-3.60
2022-12-18T13:22:53.613Z,-3.60
2022-12-18T13:34:24.342Z,-3.80
2022-12-18T13:44:40.671Z,-4.00
2022-12-18T13:55:07.150Z,-3.80
2022-12-18T14:05:33.183Z,-3.80
2022-12-18T14:15:55.813Z,-3.80
2022-12-18T14:26:28.164Z,-4.00
2022-12-18T14:36:57.390Z,-4.20
2022-12-18T14:47:20.650Z,-4.30
2022-12-18T14:57:44.326Z,-4.20
2022-12-18T15:08:36.683Z,-4.10
2022-12-18T15:18:58.773Z,-4.30
2022-12-18T15:29:23.774Z,-4.40
2022-12-18T15:39:45.379Z,-4.20
2022-12-18T15:50:09.108Z,-4.20
2022-12-18T16:00:30.939Z,-4.30
2022-12-18T16:10:53.991Z,-4.40
2022-12-18T16:21:15.299Z,-4.60
2022-12-18T16:31:39.153Z,-4.50
2022-12-18T16:42:02.690Z,-4.50
2022-12-18T16:52:30.264Z,-4.80
2022-12-18T17:02:52.237Z,-4.80
2022-12-18T17:13:15.190Z,-4.80
2022-12-18T17:23:37.943Z,-5.00
2022-12-18T17:34:02.948Z,-5.00
2022-12-18T17:44:25.104Z,-5.00
2022-12-18T17:54:48.448Z,-5.00
2022-12-18T18:05:11.867Z,-5.00
2022-12-18T18:15:36.924Z,-5.00
2022-12-18T18:26:04.116Z,-5.20
2022-12-18T18:36:27.173Z,-5.20
2022-12-18T18:46:51.102Z,-5.40
2022-12-18T18:57:20.783Z,-5.20
2022-12-18T19:07:43.001Z,-5.50
2022-12-18T19:18:07.887Z,-5.40
2022-12-18T19:28:29.573Z,-5.40
2022-12-18T19:38:53.774Z,-5.30
2022-12-18T19:49:18.311Z,-5.30
2022-12-18T19:59:41.681Z,-5.30
2022-12-18T20:10:09.097Z,-5.20
2022-12-18T20:20:32.374Z,-5.20
2022-12-18T20:31:00.289Z,-5.20
2022-12-18T20:41:24.296Z,-5.20
2022-12-18T20:51:46.015Z,-5.20
2022-12-18T21:02:11.525Z,-5.20
2022-12-18T21:12:40.310Z,-5.00
2022-12-18T21:23:16.023Z,-4.90
2022-12-18T21:33:38.443Z,-5.00
2022-12-18T21:44:07.863Z,-4.90
2022-12-18T21:54:30.779Z,-4.90
2022-12-18T22:04:54.105Z,-4.80
2022-12-18T22:15:21.196Z,-4.80
2022-12-18T22:25:44.983Z,-4.70
2022-12-18T22:36:07.468Z,-4.80
2022-12-18T22:46:31.942Z,-4.70
2022-12-18T22:56:53.728Z,-4.80
2022-12-18T23:07:18.593Z,-4.90
2022-12-18T23:17:40.546Z,-5.00
2022-12-18T23:28:03.700Z,-5.00
2022-12-18T23:38:25.107Z,-5.00
2022-12-18T23:48:48.218Z,-4.80
2022-12-18T23:59:10.217Z,-4.80
